createdAt,value
2018-09-08T00:01:46.748Z,12.13
2018-09-08T00:04:15.334Z,13.93
2018-09-08T00:06:43.904Z,13.73
2018-09-08T00:09:13.030Z,12.60
2018-09-08T00:11:41.708Z,12.77
2018-09-08T00:14:10.256Z,13.53
2018-09-08T00:16:44.026Z,14.10
2018-09-08T00:19:18.779Z,10.83
2018-09-08T00:21:52.814Z,14.60
2018-09-08T00:24:26.835Z,13.43
2018-09-08T00:26:54.706Z,14.13
2018-09-08T00:29:27.731Z,13.63
2018-09-08T00:31:57.610Z,13.97
2018-09-08T00:34:26.165Z,13.33
2018-09-08T00:36:55.030Z,18.67
2018-09-08T00:39:23.679Z,13.83
2018-09-08T00:41:52.199Z,13.83
2018-09-08T00:44:20.748Z,12.50
2018-09-08T00:46:49.311Z,10.47
2018-09-08T00:49:18.440Z,10.10
2018-09-08T00:51:49.066Z,10.97
2018-09-08T00:54:17.734Z,9.90
2018-09-08T00:56:46.395Z,11.10
2018-09-08T00:59:15.079Z,10.00
2018-09-08T01:01:43.889Z,10.10
2018-09-08T01:04:12.494Z,9.60
2018-09-08T01:06:41.097Z,8.37
2018-09-08T01:09:10.140Z,8.23
2018-09-08T01:11:38.813Z,11.23
2018-09-08T01:14:07.360Z,7.47
2018-09-08T01:16:35.953Z,9.83
2018-09-08T01:19:04.608Z,8.83
2018-09-08T01:21:33.283Z,11.60
2018-09-08T01:24:01.824Z,11.77
2018-09-08T01:26:30.396Z,9.53
2018-09-08T01:28:59.142Z,10.00
2018-09-08T01:31:27.705Z,10.50
2018-09-08T01:33:56.274Z,9.47
2018-09-08T01:36:24.900Z,11.50
2018-09-08T01:38:53.527Z,11.03
2018-09-08T01:41:22.083Z,10.30
2018-09-08T01:43:50.906Z,10.13
2018-09-08T01:46:20.041Z,11.03
2018-09-08T01:48:48.705Z,10.50
2018-09-08T01:51:17.219Z,11.23
2018-09-08T01:53:45.832Z,10.40
2018-09-08T01:56:14.616Z,9.93
2018-09-08T01:58:43.235Z,9.53
2018-09-08T02:01:12.250Z,13.40
2018-09-08T02:03:41.006Z,9.53
2018-09-08T02:06:09.810Z,10.70
2018-09-08T02:08:38.656Z,8.30
2018-09-08T02:11:07.345Z,10.43
2018-09-08T02:13:36.612Z,9.03
2018-09-08T02:16:05.188Z,9.67
2018-09-08T02:18:33.857Z,10.43
2018-09-08T02:21:02.952Z,11.90
2018-09-08T02:23:31.556Z,11.87
2018-09-08T02:26:02.119Z,12.67
2018-09-08T02:28:32.668Z,12.13
2018-09-08T02:31:01.405Z,12.70
2018-09-08T02:33:30.146Z,14.20
2018-09-08T02:35:58.707Z,14.20
2018-09-08T02:38:27.661Z,13.17
2018-09-08T02:40:56.233Z,12.70
2018-09-08T02:43:24.827Z,13.20
2018-09-08T02:45:53.395Z,14.87
2018-09-08T02:48:22.021Z,14.13
2018-09-08T02:50:49.447Z,12.17
2018-09-08T02:53:16.889Z,11.73
2018-09-08T02:55:44.403Z,12.03
2018-09-08T02:58:12.112Z,11.73
2018-09-08T03:00:41.769Z,13.17
2018-09-08T03:03:09.238Z,11.43
2018-09-08T03:05:36.646Z,11.73
2018-09-08T03:08:04.033Z,15.50
2018-09-08T03:10:31.436Z,11.87
2018-09-08T03:12:58.858Z,16.27
2018-09-08T03:15:26.317Z,15.67
2018-09-08T03:17:53.713Z,12.93
2018-09-08T03:20:21.129Z,15.20
2018-09-08T03:22:48.574Z,11.33
2018-09-08T03:25:16.107Z,12.73
2018-09-08T03:27:43.595Z,12.20
2018-09-08T03:30:11.070Z,16.17
2018-09-08T03:32:38.966Z,15.67
2018-09-08T03:35:06.489Z,16.70
2018-09-08T03:37:33.914Z,14.90
2018-09-08T03:40:01.342Z,16.50
2018-09-08T03:42:28.915Z,16.93
2018-09-08T03:44:56.331Z,16.20
2018-09-08T03:47:23.756Z,15.67
2018-09-08T03:49:51.227Z,15.73
2018-09-08T03:52:18.645Z,16.60
2018-09-08T03:54:46.093Z,17.10
2018-09-08T03:57:14.083Z,18.23
2018-09-08T03:59:41.948Z,18.60
2018-09-08T04:04:44.335Z,23.67
2018-09-08T04:07:13.073Z,20.07
2018-09-08T04:09:42.788Z,18.63
2018-09-08T04:12:11.530Z,18.80
2018-09-08T04:14:40.408Z,19.50
2018-09-08T04:17:15.546Z,17.23
2018-09-08T04:19:45.344Z,17.17
2018-09-08T04:22:15.256Z,20.13
2018-09-08T04:24:44.092Z,15.57
2018-09-08T04:27:15.317Z,16.53
2018-09-08T04:29:45.628Z,15.73
2018-09-08T04:32:14.807Z,14.33
2018-09-08T04:34:43.544Z,13.07
2018-09-08T04:37:13.025Z,14.17
2018-09-08T04:39:48.655Z,15.17
2018-09-08T04:42:18.184Z,15.50
2018-09-08T04:44:48.291Z,13.53
2018-09-08T04:47:17.656Z,13.57
2018-09-08T04:49:48.666Z,13.57
2018-09-08T04:52:19.377Z,13.40
2018-09-08T04:54:48.042Z,14.77
2018-09-08T04:57:17.580Z,15.37
2018-09-08T04:59:46.783Z,14.23
2018-09-08T05:02:16.657Z,13.63
2018-09-08T05:04:46.008Z,13.70
2018-09-08T05:07:14.764Z,13.87
2018-09-08T05:09:43.354Z,13.63
2018-09-08T05:12:12.098Z,18.17
2018-09-08T05:14:42.897Z,15.37
2018-09-08T05:17:14.901Z,14.70
2018-09-08T05:19:45.350Z,14.30
2018-09-08T05:22:16.670Z,12.53
2018-09-08T05:24:47.145Z,14.03
2018-09-08T05:27:17.897Z,13.03
2018-09-08T05:29:49.386Z,11.50
2018-09-08T05:32:20.832Z,11.17
2018-09-08T05:34:52.450Z,11.47
2018-09-08T05:37:23.418Z,10.40
2018-09-08T05:39:54.788Z,12.27
2018-09-08T05:42:26.102Z,11.97
2018-09-08T05:44:56.534Z,12.63
2018-09-08T05:47:27.070Z,13.40
2018-09-08T05:49:58.530Z,17.17
2018-09-08T05:52:29.448Z,12.63
2018-09-08T05:54:59.318Z,14.50
2018-09-08T05:57:30.037Z,13.80
2018-09-08T06:00:00.980Z,13.80
2018-09-08T06:02:32.455Z,13.30
2018-09-08T06:05:03.177Z,13.73
2018-09-08T06:07:34.817Z,10.70
2018-09-08T06:10:05.638Z,10.97
2018-09-08T06:12:36.155Z,11.20
2018-09-08T06:15:06.965Z,15.07
2018-09-08T06:17:37.653Z,10.10
2018-09-08T06:20:07.882Z,10.23
2018-09-08T06:22:36.670Z,10.57
2018-09-08T06:25:05.616Z,10.60
2018-09-08T06:27:34.350Z,11.97
2018-09-08T06:30:02.932Z,11.90
2018-09-08T06:32:31.540Z,10.67
2018-09-08T06:35:00.051Z,10.20
2018-09-08T06:37:28.893Z,10.00
2018-09-08T06:39:57.505Z,10.13
2018-09-08T06:42:26.232Z,9.40
2018-09-08T06:44:54.790Z,10.07
2018-09-08T06:47:23.449Z,12.13
2018-09-08T06:49:52.060Z,11.00
2018-09-08T06:52:20.997Z,8.77
2018-09-08T06:54:49.711Z,8.57
2018-09-08T06:57:18.477Z,8.87
2018-09-08T06:59:47.108Z,10.00
2018-09-08T07:02:16.428Z,8.27
2018-09-08T07:04:45.168Z,8.00
2018-09-08T07:07:14.522Z,10.73
2018-09-08T07:09:43.941Z,8.13
2018-09-08T07:12:12.963Z,8.17
2018-09-08T07:14:42.059Z,9.10
2018-09-08T07:17:14.967Z,7.00
2018-09-08T07:19:44.018Z,8.10
2018-09-08T07:22:12.658Z,6.83
2018-09-08T07:24:41.356Z,7.73
2018-09-08T07:27:10.038Z,7.60
2018-09-08T07:29:38.707Z,6.70
2018-09-08T07:32:07.538Z,7.23
2018-09-08T07:34:36.269Z,6.53
2018-09-08T07:37:05.549Z,6.97
2018-09-08T07:39:34.378Z,11.07
2018-09-08T07:42:02.872Z,8.13
2018-09-08T07:44:31.912Z,7.10
2018-09-08T07:47:00.512Z,5.93
2018-09-08T07:49:29.499Z,6.73
2018-09-08T07:51:58.045Z,7.87
2018-09-08T07:54:26.671Z,9.97
2018-09-08T07:56:55.214Z,7.60
2018-09-08T07:59:23.864Z,8.37
2018-09-08T08:01:52.435Z,8.80
2018-09-08T08:04:20.991Z,10.03
2018-09-08T08:06:49.904Z,5.70
2018-09-08T08:09:18.554Z,5.53
2018-09-08T08:11:47.137Z,5.97
2018-09-08T08:14:15.816Z,6.20
2018-09-08T08:16:44.578Z,5.53
2018-09-08T08:19:13.816Z,7.27
2018-09-08T08:21:42.717Z,4.30
2018-09-08T08:24:11.344Z,5.27
2018-09-08T08:26:40.527Z,5.97
2018-09-08T08:29:09.193Z,6.87
2018-09-08T08:31:38.324Z,5.27
2018-09-08T08:34:06.895Z,5.77
2018-09-08T08:36:42.145Z,7.30
2018-09-08T08:39:10.799Z,8.90
2018-09-08T08:41:39.428Z,4.27
2018-09-08T08:44:08.158Z,4.63
2018-09-08T08:46:36.737Z,4.23
2018-09-08T08:49:05.457Z,7.33
2018-09-08T08:51:45.296Z,4.93
2018-09-08T08:54:22.603Z,4.40
2018-09-08T08:56:51.229Z,4.63
2018-09-08T08:59:20.133Z,4.63
2018-09-08T09:01:49.000Z,5.33
2018-09-08T09:04:17.667Z,4.43
2018-09-08T09:06:46.247Z,4.40
2018-09-08T09:09:15.685Z,4.90
2018-09-08T09:11:45.459Z,4.40
2018-09-08T09:14:14.642Z,4.27
2018-09-08T09:16:43.969Z,4.27
2018-09-08T09:19:34.010Z,3.90
2018-09-08T09:22:14.644Z,4.63
2018-09-08T09:24:50.204Z,5.50
2018-09-08T09:27:18.488Z,5.93
2018-09-08T09:29:47.693Z,3.50
2018-09-08T09:32:16.917Z,4.53
2018-09-08T09:34:45.492Z,3.87
2018-09-08T09:37:14.276Z,3.73
2018-09-08T09:39:43.262Z,4.90
2018-09-08T09:42:11.978Z,4.93
2018-09-08T09:44:40.818Z,3.37
2018-09-08T09:47:10.785Z,4.17
2018-09-08T09:49:39.549Z,3.00
2018-09-08T09:52:08.170Z,3.13
2018-09-08T09:54:36.722Z,3.80
2018-09-08T09:57:05.233Z,3.10
2018-09-08T09:59:33.884Z,4.50
2018-09-08T10:02:09.258Z,4.17
2018-09-08T10:04:38.456Z,5.77
2018-09-08T10:07:11.639Z,2.93
2018-09-08T10:09:41.454Z,2.20
2018-09-08T10:12:10.271Z,4.10
2018-09-08T10:14:39.216Z,13.87
2018-09-08T10:17:07.836Z,2.47
2018-09-08T10:19:36.498Z,3.60
2018-09-08T10:22:05.571Z,4.43
2018-09-08T10:24:34.090Z,4.80
2018-09-08T10:27:02.788Z,4.67
2018-09-08T10:29:31.305Z,4.47
2018-09-08T10:31:59.936Z,3.53
2018-09-08T10:34:28.964Z,2.93
2018-09-08T10:36:57.933Z,3.53
2018-09-08T10:39:26.909Z,2.43
2018-09-08T10:41:56.026Z,3.03
2018-09-08T10:44:24.614Z,4.70
2018-09-08T10:46:53.378Z,4.40
2018-09-08T10:49:22.054Z,4.53
2018-09-08T10:52:54.890Z,4.10
2018-09-08T10:55:23.436Z,2.33
2018-09-08T10:57:52.107Z,3.53
2018-09-08T11:00:20.997Z,3.20
2018-09-08T11:02:50.948Z,2.27
2018-09-08T11:05:19.401Z,4.97
2018-09-08T11:07:48.570Z,6.40
2018-09-08T11:10:17.538Z,4.43
2018-09-08T11:12:46.174Z,3.63
2018-09-08T11:15:14.655Z,3.30
2018-09-08T11:17:44.180Z,3.60
2018-09-08T11:20:13.185Z,3.43
2018-09-08T11:22:42.009Z,3.00
2018-09-08T11:25:10.578Z,3.37
2018-09-08T11:27:39.906Z,6.87
2018-09-08T11:30:08.749Z,4.03
2018-09-08T11:32:37.488Z,2.40
2018-09-08T11:35:06.109Z,5.73
2018-09-08T11:37:34.956Z,3.63
2018-09-08T11:40:03.492Z,3.13
2018-09-08T11:42:32.044Z,3.77
2018-09-08T11:45:00.556Z,2.70
2018-09-08T11:47:29.060Z,4.77
2018-09-08T11:49:57.647Z,3.23
2018-09-08T11:52:26.135Z,8.47
2018-09-08T11:54:54.694Z,3.57
2018-09-08T11:57:23.649Z,4.93
2018-09-08T11:59:52.348Z,2.53
2018-09-08T12:02:21.426Z,4.40
2018-09-08T12:04:50.762Z,5.87
2018-09-08T12:07:19.841Z,2.67
2018-09-08T12:09:48.419Z,2.93
2018-09-08T12:12:17.455Z,2.73
2018-09-08T12:14:46.295Z,2.47
2018-09-08T12:17:15.122Z,5.03
2018-09-08T12:19:43.767Z,2.43
2018-09-08T12:22:12.489Z,2.73
2018-09-08T12:24:41.062Z,4.33
2018-09-08T12:27:10.590Z,5.07
2018-09-08T12:29:39.762Z,2.07
2018-09-08T12:32:08.296Z,3.37
2018-09-08T12:34:36.782Z,2.73
2018-09-08T12:38:26.565Z,3.93
2018-09-08T12:40:55.196Z,2.17
2018-09-08T12:43:24.255Z,4.50
2018-09-08T12:45:52.836Z,2.50
2018-09-08T12:48:21.499Z,1.67
2018-09-08T12:50:50.649Z,2.20
2018-09-08T12:53:19.353Z,3.70
2018-09-08T12:56:33.573Z,3.23
2018-09-08T12:59:02.382Z,2.07
2018-09-08T13:01:31.241Z,2.77
2018-09-08T13:03:59.824Z,2.60
2018-09-08T13:06:28.386Z,4.10
2018-09-08T13:08:57.763Z,1.80
2018-09-08T13:11:27.741Z,4.87
2018-09-08T13:13:56.265Z,2.27
2018-09-08T13:16:26.564Z,3.33
2018-09-08T13:18:56.196Z,2.53
2018-09-08T13:21:25.889Z,1.67
2018-09-08T13:23:54.444Z,3.60
2018-09-08T13:26:23.736Z,4.03
2018-09-08T13:28:52.424Z,2.03
2018-09-08T13:31:20.983Z,1.67
2018-09-08T13:33:49.590Z,1.60
2018-09-08T13:36:19.162Z,3.30
2018-09-08T13:38:47.942Z,5.13
2018-09-08T13:41:18.651Z,4.17
2018-09-08T13:43:48.517Z,3.23
2018-09-08T13:46:17.566Z,3.83
2018-09-08T13:48:47.051Z,1.70
2018-09-08T13:51:15.634Z,2.33
2018-09-08T13:53:44.315Z,2.17
2018-09-08T13:56:13.002Z,3.90
2018-09-08T13:58:41.570Z,1.40
2018-09-08T14:01:11.922Z,2.17
2018-09-08T14:03:40.525Z,2.50
2018-09-08T14:06:09.209Z,1.20
2018-09-08T14:08:37.932Z,1.70
2018-09-08T14:11:06.730Z,2.60
2018-09-08T14:13:35.768Z,2.47
2018-09-08T14:16:07.117Z,3.07
2018-09-08T14:18:35.703Z,2.57
2018-09-08T14:21:04.271Z,3.60
2018-09-08T14:23:32.773Z,2.37
2018-09-08T14:26:01.514Z,2.63
2018-09-08T14:28:31.620Z,3.10
2018-09-08T14:31:00.314Z,3.07
2018-09-08T14:33:28.849Z,2.77
2018-09-08T14:35:57.500Z,2.67
2018-09-08T14:38:26.193Z,4.03
2018-09-08T14:40:54.899Z,4.23
2018-09-08T14:43:23.499Z,2.70
2018-09-08T14:45:51.995Z,3.27
2018-09-08T14:48:20.839Z,2.00
2018-09-08T14:50:49.467Z,2.73
2018-09-08T14:53:18.112Z,2.63
2018-09-08T14:55:46.681Z,6.73
2018-09-08T14:58:15.307Z,2.30
2018-09-08T15:00:43.919Z,6.40
2018-09-08T15:03:12.717Z,3.03
2018-09-08T15:05:43.460Z,1.73
2018-09-08T15:08:12.239Z,2.20
2018-09-08T15:10:44.127Z,2.27
2018-09-08T15:13:12.835Z,2.70
2018-09-08T15:15:41.463Z,2.73
2018-09-08T15:18:10.083Z,2.27
2018-09-08T15:20:39.569Z,2.73
2018-09-08T15:23:08.357Z,2.23
2018-09-08T15:25:36.891Z,3.03
2018-09-08T15:28:05.484Z,2.63
2018-09-08T15:30:34.071Z,3.10
2018-09-08T15:33:02.851Z,2.60
2018-09-08T15:35:31.312Z,2.33
2018-09-08T15:37:59.820Z,1.80
2018-09-08T15:40:28.565Z,3.57
2018-09-08T15:42:57.411Z,2.53
2018-09-08T15:45:26.100Z,3.90
2018-09-08T15:47:54.607Z,3.27
2018-09-08T15:50:23.289Z,7.27
2018-09-08T15:52:52.281Z,3.03
2018-09-08T15:55:20.826Z,2.97
2018-09-08T15:57:49.595Z,4.57
2018-09-08T16:00:18.107Z,2.97
2018-09-08T16:02:46.635Z,4.70
2018-09-08T16:05:15.163Z,2.97
2018-09-08T16:07:44.293Z,3.60
2018-09-08T16:10:13.121Z,3.40
2018-09-08T16:12:41.713Z,1.87
2018-09-08T16:15:10.838Z,3.00
2018-09-08T16:17:40.016Z,2.40
2018-09-08T16:20:08.596Z,3.47
2018-09-08T16:22:37.165Z,1.90
2018-09-08T16:25:05.775Z,3.03
2018-09-08T16:27:34.379Z,1.40
2018-09-08T16:30:02.937Z,2.30
2018-09-08T16:32:31.414Z,4.63
2018-09-08T16:34:59.899Z,2.03
2018-09-08T16:37:28.400Z,3.07
2018-09-08T16:39:56.898Z,1.80
2018-09-08T16:42:25.615Z,1.77
2018-09-08T16:44:54.155Z,2.03
2018-09-08T16:47:22.936Z,2.13
2018-09-08T16:49:51.439Z,2.57
2018-09-08T16:52:20.021Z,2.70
2018-09-08T16:54:48.622Z,3.10
2018-09-08T16:57:17.432Z,3.80
2018-09-08T16:59:46.228Z,2.37
2018-09-08T17:02:14.820Z,2.03
2018-09-08T17:04:43.445Z,1.60
2018-09-08T17:07:12.406Z,2.10
2018-09-08T17:09:41.434Z,2.10
2018-09-08T17:12:10.142Z,3.13
2018-09-08T17:14:39.049Z,2.17
2018-09-08T17:17:07.561Z,2.03
2018-09-08T17:19:36.277Z,2.27
2018-09-08T17:22:04.843Z,2.47
2018-09-08T17:24:33.753Z,2.80
2018-09-08T17:27:02.640Z,3.37
2018-09-08T17:29:31.164Z,2.47
2018-09-08T17:31:59.635Z,2.03
2018-09-08T17:34:28.112Z,2.47
2018-09-08T17:36:56.611Z,2.60
2018-09-08T17:39:25.070Z,2.63
2018-09-08T17:41:53.703Z,2.10
2018-09-08T17:44:22.305Z,3.10
2018-09-08T17:46:50.853Z,3.57
2018-09-08T17:49:19.637Z,2.53
2018-09-08T17:51:48.193Z,2.10
2018-09-08T17:54:16.743Z,4.57
2018-09-08T17:56:45.285Z,4.27
2018-09-08T17:59:13.897Z,1.63
2018-09-08T18:01:42.612Z,2.60
2018-09-08T18:04:11.966Z,1.60
2018-09-08T18:06:41.543Z,3.63
2018-09-08T18:09:11.051Z,1.80
2018-09-08T18:11:41.786Z,3.97
2018-09-08T18:14:10.847Z,2.10
2018-09-08T18:16:40.120Z,2.17
2018-09-08T18:19:09.389Z,2.03
2018-09-08T18:21:39.040Z,4.60
2018-09-08T18:24:07.867Z,2.30
2018-09-08T18:26:36.700Z,2.47
2018-09-08T18:29:05.427Z,3.10
2018-09-08T18:31:33.911Z,3.10
2018-09-08T18:34:02.476Z,3.67
2018-09-08T18:36:31.092Z,2.77
2018-09-08T18:38:59.628Z,2.43
2018-09-08T18:41:28.359Z,2.87
2018-09-08T18:43:56.997Z,2.20
2018-09-08T18:46:25.636Z,2.77
2018-09-08T18:48:55.513Z,1.63
2018-09-08T18:51:24.060Z,2.07
2018-09-08T18:53:52.769Z,1.70
2018-09-08T18:56:21.616Z,4.70
2018-09-08T18:58:50.349Z,2.70
2018-09-08T19:01:19.053Z,1.93
2018-09-08T19:03:48.652Z,2.40
2018-09-08T19:06:17.182Z,2.03
2018-09-08T19:08:46.972Z,3.30
2018-09-08T19:11:16.321Z,3.23
2018-09-08T19:13:45.468Z,5.07
2018-09-08T19:16:14.442Z,3.97
2018-09-08T19:18:43.408Z,1.90
2018-09-08T19:21:12.410Z,2.90
2018-09-08T19:23:41.319Z,4.40
2018-09-08T19:26:09.943Z,2.77
2018-09-08T19:28:39.758Z,2.93
2018-09-08T19:31:08.397Z,2.57
2018-09-08T19:33:37.463Z,3.30
2018-09-08T19:36:06.297Z,2.47
2018-09-08T19:38:34.948Z,2.83
2018-09-08T19:41:03.588Z,2.43
2018-09-08T19:43:32.264Z,2.80
2018-09-08T19:46:05.098Z,3.47
2018-09-08T19:48:33.838Z,3.00
2018-09-08T19:51:03.200Z,3.00
2018-09-08T19:54:05.157Z,1.70
2018-09-08T19:56:39.981Z,2.60
2018-09-08T19:59:09.502Z,4.43
2018-09-08T20:01:40.388Z,1.73
2018-09-08T20:04:09.739Z,2.80
2018-09-08T20:06:39.355Z,2.77
2018-09-08T20:09:08.322Z,3.37
2018-09-08T20:11:36.964Z,3.03
2018-09-08T20:14:05.585Z,1.97
2018-09-08T20:16:34.284Z,2.80
2018-09-08T20:19:03.373Z,2.03
2018-09-08T20:21:32.420Z,2.57
2018-09-08T20:24:01.090Z,2.07
2018-09-08T20:26:30.013Z,4.23
2018-09-08T20:28:59.186Z,2.83
2018-09-08T20:31:28.549Z,3.83
2018-09-08T20:33:57.337Z,2.87
2018-09-08T20:36:26.003Z,3.37
2018-09-08T20:38:54.594Z,2.10
2018-09-08T20:41:23.276Z,2.70
2018-09-08T20:43:51.872Z,4.73
2018-09-08T20:46:20.943Z,3.33
2018-09-08T20:48:53.244Z,1.83
2018-09-08T20:51:22.068Z,2.13
2018-09-08T20:53:50.727Z,3.77
2018-09-08T20:56:19.304Z,2.10
2018-09-08T20:58:48.332Z,2.57
2018-09-08T21:01:17.053Z,2.00
2018-09-08T21:03:46.347Z,3.43
2018-09-08T21:06:15.160Z,3.73
2018-09-08T21:08:44.423Z,2.73
2018-09-08T21:11:13.119Z,2.73
2018-09-08T21:13:42.068Z,2.90
2018-09-08T21:16:11.030Z,2.87
2018-09-08T21:18:40.773Z,4.60
2018-09-08T21:21:09.412Z,2.63
2018-09-08T21:23:38.139Z,3.40
2018-09-08T21:26:06.991Z,2.17
2018-09-08T21:28:35.754Z,2.10
2018-09-08T21:31:04.378Z,2.30
2018-09-08T21:33:33.118Z,2.60
2018-09-08T21:36:01.665Z,3.53
2018-09-08T21:38:31.136Z,5.50
2018-09-08T21:40:59.750Z,2.30
2018-09-08T21:43:28.246Z,2.27
2018-09-08T21:45:56.781Z,3.23
2018-09-08T21:48:25.359Z,1.63
2018-09-08T21:50:53.858Z,2.60
2018-09-08T21:53:22.682Z,3.93
2018-09-08T21:55:51.537Z,2.60
2018-09-08T21:58:20.125Z,3.83
2018-09-08T22:00:53.936Z,2.30
2018-09-08T22:03:22.531Z,2.60
2018-09-08T22:05:51.157Z,3.17
2018-09-08T22:08:20.055Z,3.13
2018-09-08T22:10:48.785Z,4.23
2018-09-08T22:13:17.935Z,2.90
2018-09-08T22:15:46.889Z,3.97
2018-09-08T22:18:15.539Z,2.40
2018-09-08T22:20:44.596Z,2.93
2018-09-08T22:23:13.292Z,2.43
2018-09-08T22:25:42.062Z,2.03
2018-09-08T22:28:10.619Z,3.40
2018-09-08T22:30:39.379Z,3.20
2018-09-08T22:33:07.847Z,2.83
2018-09-08T22:35:36.576Z,2.50
2018-09-08T22:38:05.173Z,2.30
2018-09-08T22:40:33.708Z,2.50
2018-09-08T22:43:02.889Z,2.50
2018-09-08T22:45:31.459Z,3.37
2018-09-08T22:48:00.094Z,2.70
2018-09-08T22:50:30.053Z,4.13
2018-09-08T22:52:58.909Z,3.37
2018-09-08T22:55:28.442Z,3.13
2018-09-08T22:57:58.196Z,4.63
2018-09-08T23:00:26.798Z,3.40
2018-09-08T23:02:55.480Z,3.07
2018-09-08T23:05:24.339Z,4.50
2018-09-08T23:07:53.665Z,3.90
2018-09-08T23:10:22.463Z,3.03
2018-09-08T23:12:52.500Z,3.50
2018-09-08T23:15:21.227Z,2.23
2018-09-08T23:17:50.205Z,2.67
2018-09-08T23:20:18.846Z,2.40
2018-09-08T23:22:48.752Z,2.33
2018-09-08T23:25:19.561Z,2.50
2018-09-08T23:27:48.414Z,3.20
2018-09-08T23:30:17.727Z,2.07
2018-09-08T23:32:46.452Z,2.63
2018-09-08T23:35:16.690Z,2.93
2018-09-08T23:37:45.774Z,3.60
2018-09-08T23:40:14.550Z,3.03
2018-09-08T23:42:43.380Z,2.53
2018-09-08T23:45:12.376Z,4.53
2018-09-08T23:47:41.224Z,3.33
2018-09-08T23:50:10.040Z,3.93
2018-09-08T23:52:38.846Z,2.10
2018-09-08T23:55:07.494Z,3.83
2018-09-08T23:57:36.111Z,2.20
